Terminal Aerodrome Forecast
Issued by NWS

Home | Current Version | Previous Version | Text Only | Print | Product List | Glossary On
Versions: 1 2 3 4 5 6 7 8 9 10 11 12 13 14 15 16 17 18 19 20
000
FTUS46 KSEW 282320
TAFCLM
TAF
KCLM 282320Z 2900/2924 VRB04KT P6SM -RA OVC040
     FM290700 09005KT 4SM RA BR OVC025
     FM291400 24012G22KT P6SM -RA BKN015 OVC030
     FM291800 28015G25KT P6SM VCSH SCT020 BKN040=

USA.gov is the U.S. government's official web portal to all federal, state and local government web resources and services.